Taborton, New York
Current Conditions -  °F | °C
As of 7:14 PM on Friday 24 Oct 2014 (Local Time) from KAQW Reporting Station
Overcast Overcast  
Wind Chill: 41°   Ceiling: 1100
Heat Index: 46°   Visibility: 10mi
Dew Point: 42°   Wind: 12mph
Humidity: 86%   Direction: 270°W
Pressure: 29.82"   Gusts: NA
Location:  42.636°N, 73.4934°W
Report Text: KAQW 242314Z AUTO 27010KT 10SM BKN011 BKN015 OVC021 08/06 A2982 RMK AO2 T00780056
Loading
Personal Weather Stations






























Interactive Weather Map
Tropical Storm Tracking
New forecast layout! Learn more

10-Day Weather Forecast

Advertisements
Track Severe Weather on mobile